Time;durP1;ratioP1;P1;durP2;ratioP2;P2;SDS_P1;SDS_P2;PMS_P1;PMS_P2;Temp;Humidity;BMP_temperature;BMP_pressure;BME280_temperature;BME280_humidity;BME280_pressure;Samples;Min_cycle;Max_cycle;Signal;HPM_P1;HPM_P2
2021/07/02 00:02:14;;;;;;;13.75;6.30;;;;;;;13.35;78.02;101230.63;4970188;28;20027;-83
2021/07/02 00:04:40;;;;;;;12.30;6.25;;;;;;;13.28;78.54;101253.97;4963447;28;20546;-83
2021/07/02 00:07:05;;;;;;;13.20;6.28;;;;;;;13.15;78.48;101241.91;4973622;28;20097;-83
2021/07/02 00:09:31;;;;;;;16.30;6.50;;;;;;;13.16;78.85;101237.34;4970594;28;20048;-83
2021/07/02 00:11:57;;;;;;;13.13;6.20;;;;;;;13.23;78.34;101250.94;4970115;28;20034;-83
2021/07/02 00:14:22;;;;;;;13.93;6.53;;;;;;;13.23;78.54;101243.69;4976518;28;20042;-83
2021/07/02 00:16:48;;;;;;;13.65;6.13;;;;;;;13.14;78.90;101229.41;4971548;28;20026;-83
2021/07/02 00:19:13;;;;;;;16.23;7.20;;;;;;;13.19;78.73;101237.81;4939469;28;20552;-83
2021/07/02 00:21:38;;;;;;;19.48;7.47;;;;;;;13.15;78.83;101243.75;4980632;28;20089;-83
2021/07/02 00:24:04;;;;;;;18.02;7.15;;;;;;;13.11;79.11;101234.34;4970158;28;20121;-82
2021/07/02 00:26:30;;;;;;;19.27;7.55;;;;;;;13.03;79.27;101240.63;4958149;28;20091;-82
2021/07/02 00:28:55;;;;;;;22.55;8.27;;;;;;;12.88;79.12;101228.94;4971689;28;20117;-83
2021/07/02 00:31:21;;;;;;;19.88;7.55;;;;;;;12.74;79.47;101217.06;4973268;28;20065;-83
2021/07/02 00:33:46;;;;;;;35.67;11.85;;;;;;;12.82;79.43;101240.44;4976281;28;20057;-80
2021/07/02 00:36:11;;;;;;;32.95;10.98;;;;;;;12.83;79.51;101231.31;5000943;28;20049;-83
2021/07/02 00:38:37;;;;;;;27.02;8.77;;;;;;;12.85;79.34;101235.53;4984836;28;20022;-82
2021/07/02 00:41:02;;;;;;;22.40;8.60;;;;;;;12.75;79.33;101241.19;4986591;28;20030;-83
2021/07/02 00:43:28;;;;;;;23.48;7.47;;;;;;;12.73;79.89;101231.56;4983890;28;20121;-83
2021/07/02 00:45:53;;;;;;;23.05;8.32;;;;;;;12.74;79.72;101234.06;4997964;28;20113;-83
2021/07/02 00:48:19;;;;;;;17.77;8.52;;;;;;;12.53;79.28;101198.81;4960205;28;20034;-84
2021/07/02 00:50:45;;;;;;;23.30;8.48;;;;;;;12.80;79.30;101237.91;4966290;28;20023;-82
2021/07/02 00:53:14;;;;;;;19.60;7.93;;;;;;;12.74;79.30;101230.53;4978883;28;20097;-83
2021/07/02 00:55:41;;;;;;;19.83;8.25;;;;;;;12.71;79.51;101239.84;4972282;28;20034;-84
2021/07/02 00:58:07;;;;;;;19.17;8.00;;;;;;;12.58;79.34;101222.56;5000227;28;20031;-83
2021/07/02 01:00:33;;;;;;;19.42;7.63;;;;;;;12.64;78.75;101233.47;4965130;28;20036;-85
2021/07/02 01:02:58;;;;;;;18.27;8.27;;;;;;;12.56;78.93;101225.41;4964886;28;20033;-82
2021/07/02 01:05:23;;;;;;;16.13;7.07;;;;;;;12.60;78.45;101237.56;4959086;28;20023;-83
2021/07/02 01:07:49;;;;;;;18.05;6.50;;;;;;;12.51;78.78;101211.63;4968171;28;20022;-84
2021/07/02 01:10:17;;;;;;;17.20;7.57;;;;;;;12.61;78.25;101233.00;4982292;28;20038;-84
2021/07/02 01:12:43;;;;;;;16.42;7.22;;;;;;;12.50;78.14;101220.75;4988413;28;20585;-85
2021/07/02 01:15:19;;;;;;;15.48;7.03;;;;;;;12.54;78.88;101227.44;4986542;28;20113;-85
2021/07/02 01:17:44;;;;;;;14.45;6.00;;;;;;;12.45;78.75;101215.88;4985382;28;20454;-82
2021/07/02 01:20:10;;;;;;;13.43;5.72;;;;;;;12.41;78.60;101222.66;5005200;28;20026;-85
2021/07/02 01:22:38;;;;;;;12.65;6.47;;;;;;;12.45;78.36;101221.28;4972198;28;20036;-85
2021/07/02 01:25:04;;;;;;;14.18;5.88;;;;;;;12.33;78.34;101203.78;5004761;28;20041;-85
2021/07/02 01:27:29;;;;;;;14.57;6.10;;;;;;;12.34;78.87;101210.06;5004934;28;20263;-85
2021/07/02 01:29:55;;;;;;;17.40;5.72;;;;;;;12.08;79.42;101192.28;5003597;28;20050;-84
2021/07/02 01:32:20;;;;;;;17.88;6.43;;;;;;;12.06;79.41;101175.44;4990321;28;20096;-84
2021/07/02 01:34:46;;;;;;;13.90;6.53;;;;;;;11.93;79.19;101172.47;4994890;28;20030;-84
2021/07/02 01:37:12;;;;;;;19.63;6.28;;;;;;;11.98;80.03;101181.72;4988370;28;20033;-84
2021/07/02 01:39:38;;;;;;;18.35;6.60;;;;;;;11.97;80.55;101204.31;4988100;28;20030;-84
2021/07/02 01:42:06;;;;;;;15.40;6.45;;;;;;;11.90;80.91;101197.09;4987476;28;20534;-84
2021/07/02 01:44:31;;;;;;;14.57;6.85;;;;;;;11.88;80.96;101186.47;4969329;28;20037;-84
2021/07/02 01:46:57;;;;;;;13.82;6.28;;;;;;;11.90;81.06;101178.22;4972097;28;20034;-83
2021/07/02 01:49:22;;;;;;;13.57;6.43;;;;;;;11.86;81.67;101178.56;4987534;28;20038;-84
2021/07/02 01:51:48;;;;;;;16.30;6.25;;;;;;;11.90;81.56;101186.31;4983279;28;20051;-84
2021/07/02 01:54:14;;;;;;;15.85;6.78;;;;;;;11.83;81.68;101168.13;4985005;28;20030;-85
2021/07/02 01:56:47;;;;;;;15.88;7.28;;;;;;;11.84;81.47;101156.31;4967405;28;20023;-84
2021/07/02 01:59:12;;;;;;;;;;;;;;;11.91;81.70;101174.50;4989424;28;20033;-81
2021/07/02 02:01:38;;;;;;;22.25;7.63;;;;;;;11.84;81.77;101166.25;4979676;28;19960;-83
2021/07/02 02:04:03;;;;;;;14.27;6.38;;;;;;;11.86;81.97;101164.25;4981811;28;20034;-84
2021/07/02 02:06:29;;;;;;;16.77;7.18;;;;;;;11.96;82.34;101175.69;4984843;28;20102;-83
2021/07/02 02:08:54;;;;;;;14.82;6.90;;;;;;;11.93;81.95;101159.00;5008084;28;20022;-83
2021/07/02 02:11:20;;;;;;;15.35;6.15;;;;;;;12.01;82.04;101175.13;4985643;28;20041;-83
2021/07/02 02:13:45;;;;;;;13.15;5.95;;;;;;;11.97;82.48;101171.97;4986936;28;20030;-83
2021/07/02 02:16:11;;;;;;;13.13;6.45;;;;;;;11.91;82.59;101147.56;4968336;28;20226;-83
2021/07/02 02:18:36;;;;;;;17.52;6.82;;;;;;;11.87;82.48;101156.00;5001655;28;20391;-83
2021/07/02 02:21:02;;;;;;;16.90;6.18;;;;;;;11.96;82.75;101159.50;4986138;28;20104;-84
2021/07/02 02:23:27;;;;;;;15.65;6.90;;;;;;;11.75;83.05;101132.25;4986127;28;20034;-84
2021/07/02 02:25:52;;;;;;;16.15;6.60;;;;;;;11.99;83.19;101164.53;4978723;28;20094;-83
2021/07/02 02:28:18;;;;;;;15.50;6.40;;;;;;;12.07;83.00;101147.50;5001691;28;20526;-84
2021/07/02 02:30:43;;;;;;;15.23;6.80;;;;;;;12.18;83.17;101139.00;4986616;28;20045;-84
2021/07/02 02:33:11;;;;;;;13.55;6.25;;;;;;;12.19;82.32;101127.19;4970561;28;20053;-83
2021/07/02 02:35:37;;;;;;;15.25;6.40;;;;;;;12.34;82.51;101148.88;4981795;28;20038;-83
2021/07/02 02:38:02;;;;;;;14.25;6.32;;;;;;;12.42;82.68;101143.41;4973275;28;20026;-84
2021/07/02 02:40:28;;;;;;;15.25;6.28;;;;;;;12.45;82.34;101136.81;4984588;28;20065;-84
2021/07/02 02:42:53;;;;;;;15.52;6.85;;;;;;;12.30;82.28;101113.34;4983547;28;20030;-83
2021/07/02 02:45:18;;;;;;;11.07;5.38;;;;;;;12.33;82.31;101125.59;4982999;28;20034;-83
2021/07/02 02:47:44;;;;;;;14.68;6.75;;;;;;;12.31;82.62;101130.34;4991451;28;20031;-83
2021/07/02 02:50:09;;;;;;;14.02;6.38;;;;;;;12.30;82.76;101134.03;4985403;28;20030;-84
2021/07/02 02:52:35;;;;;;;13.20;6.25;;;;;;;12.29;82.54;101114.34;4991706;28;20076;-84
2021/07/02 02:55:00;;;;;;;15.35;6.60;;;;;;;12.30;82.82;101123.25;5000751;28;20046;-84
2021/07/02 02:57:26;;;;;;;16.60;6.47;;;;;;;12.31;83.12;101127.66;4999800;28;20045;-84
2021/07/02 02:59:52;;;;;;;11.10;6.00;;;;;;;12.40;82.82;101128.44;4988334;28;20048;-83
2021/07/02 03:02:17;;;;;;;12.93;5.95;;;;;;;12.35;83.14;101109.25;4982285;28;20046;-83
2021/07/02 03:04:43;;;;;;;13.88;6.85;;;;;;;12.25;83.20;101109.47;4965740;28;20041;-84
2021/07/02 03:07:08;;;;;;;13.25;6.00;;;;;;;12.32;83.20;101113.13;4971787;28;20563;-84
2021/07/02 03:09:34;;;;;;;14.23;6.05;;;;;;;12.38;83.27;101120.50;4992492;28;20032;-83
2021/07/02 03:12:00;;;;;;;12.57;5.88;;;;;;;12.45;82.91;101110.69;4986387;28;20573;-83
2021/07/02 03:14:26;;;;;;;12.35;5.78;;;;;;;12.47;82.36;101114.06;4987992;28;20018;-83
2021/07/02 03:16:52;;;;;;;13.93;5.80;;;;;;;12.51;81.97;101098.34;4983927;28;20073;-84
2021/07/02 03:19:18;;;;;;;12.48;5.90;;;;;;;12.54;81.89;101081.78;4985329;28;20478;-84
2021/07/02 03:21:44;;;;;;;13.75;6.07;;;;;;;12.49;81.78;101079.66;5002739;28;20030;-85
2021/07/02 03:24:10;;;;;;;13.00;6.25;;;;;;;12.50;82.57;101091.28;4985705;28;20041;-83
2021/07/02 03:26:35;;;;;;;10.43;5.38;;;;;;;12.45;82.17;101077.50;4997759;28;20026;-83
2021/07/02 03:29:01;;;;;;;12.98;5.72;;;;;;;12.47;82.48;101079.00;4974799;28;20026;-84
2021/07/02 03:31:28;;;;;;;13.10;5.75;;;;;;;12.50;82.89;101089.41;5002172;28;20387;-84
2021/07/02 03:33:53;;;;;;;13.57;5.45;;;;;;;12.41;83.40;101074.31;4983411;28;20037;-84
2021/07/02 03:36:19;;;;;;;11.27;5.95;;;;;;;12.49;83.18;101097.66;4987175;28;20022;-83
2021/07/02 03:38:44;;;;;;;21.75;5.63;;;;;;;12.46;83.10;101107.00;4990681;28;20030;-84
2021/07/02 03:41:10;;;;;;;12.88;6.85;;;;;;;12.49;82.93;101100.38;4985687;28;20084;-83
2021/07/02 03:43:35;;;;;;;12.75;6.22;;;;;;;12.24;82.72;101041.25;4965715;28;20023;-85
2021/07/02 03:46:00;;;;;;;14.18;6.50;;;;;;;12.63;82.00;101087.97;4981829;28;20545;-85
2021/07/02 03:48:26;;;;;;;13.18;6.18;;;;;;;12.75;82.09;101089.19;4989246;28;20026;-83
2021/07/02 03:50:51;;;;;;;12.55;5.82;;;;;;;12.70;82.19;101095.16;4970845;28;20819;-83
2021/07/02 03:53:17;;;;;;;11.75;5.80;;;;;;;12.65;82.30;101077.81;4994347;28;20033;-84
2021/07/02 03:55:42;;;;;;;12.45;5.55;;;;;;;12.64;81.88;101062.66;4989449;28;20035;-84
2021/07/02 03:58:07;;;;;;;13.32;5.88;;;;;;;12.87;81.74;101089.63;4995479;28;20030;-84
2021/07/02 04:00:33;;;;;;;13.45;5.93;;;;;;;12.80;81.38;101078.72;4997184;28;20237;-83
2021/07/02 04:02:58;;;;;;;12.80;5.70;;;;;;;12.69;82.20;101071.06;4973444;28;20030;-85
2021/07/02 04:05:24;;;;;;;13.65;5.57;;;;;;;12.82;81.93;101086.63;5001284;28;20029;-83
2021/07/02 04:07:49;;;;;;;12.43;5.45;;;;;;;12.88;81.95;101088.59;4991305;28;20028;-83
2021/07/02 04:10:15;;;;;;;15.77;6.80;;;;;;;12.81;82.25;101082.25;4965317;28;20035;-84
2021/07/02 04:12:40;;;;;;;10.05;4.97;;;;;;;12.79;82.54;101087.00;4987195;28;20054;-84
2021/07/02 04:15:07;;;;;;;12.82;5.57;;;;;;;12.83;82.60;101088.28;4986552;28;20034;-84
2021/07/02 04:17:33;;;;;;;10.40;4.82;;;;;;;12.77;82.89;101081.78;4987128;28;20030;-84
2021/07/02 04:19:58;;;;;;;12.85;5.38;;;;;;;12.72;82.93;101074.22;4986635;28;20057;-84
2021/07/02 04:22:23;;;;;;;13.98;6.28;;;;;;;12.76;82.92;101091.72;4984576;28;20018;-84
2021/07/02 04:24:50;;;;;;;10.77;5.80;;;;;;;12.76;82.75;101080.09;4966630;28;20018;-84
2021/07/02 04:27:16;;;;;;;14.65;6.20;;;;;;;12.87;82.19;101076.13;4990443;28;20672;-83
2021/07/02 04:29:44;;;;;;;12.07;5.95;;;;;;;12.93;81.69;101080.78;4965940;28;20034;-85
2021/07/02 04:32:10;;;;;;;13.55;5.80;;;;;;;12.78;82.14;101053.78;4984934;28;20137;-85
2021/07/02 04:34:37;;;;;;;12.18;5.57;;;;;;;12.76;82.68;101070.16;4987653;28;20076;-83
2021/07/02 04:37:03;;;;;;;14.40;6.57;;;;;;;12.61;82.97;101049.56;4983025;28;20464;-83
2021/07/02 04:39:28;;;;;;;11.75;5.80;;;;;;;12.50;83.12;101037.34;4986163;28;20054;-83
2021/07/02 04:41:54;;;;;;;11.18;5.68;;;;;;;12.76;83.01;101053.13;4986015;28;20023;-84
2021/07/02 04:44:19;;;;;;;10.15;5.15;;;;;;;12.79;82.93;101047.34;5002752;28;20502;-84
2021/07/02 04:46:45;;;;;;;12.27;6.03;;;;;;;12.63;82.72;101015.97;4985173;28;20375;-84
2021/07/02 04:49:10;;;;;;;13.00;6.40;;;;;;;12.71;83.04;101034.78;4984865;28;20022;-83
2021/07/02 04:51:35;;;;;;;13.27;6.30;;;;;;;12.70;83.22;101043.03;4983238;28;20121;-84
2021/07/02 04:54:01;;;;;;;13.20;5.82;;;;;;;12.64;83.09;101033.81;4968799;28;20063;-84
2021/07/02 04:56:26;;;;;;;14.00;6.60;;;;;;;12.70;83.20;101054.69;4982977;28;20042;-84
2021/07/02 04:58:55;;;;;;;13.48;5.95;;;;;;;12.56;83.34;101039.28;4984947;28;20545;-84
2021/07/02 05:01:24;;;;;;;11.13;5.30;;;;;;;12.62;83.60;101051.22;4985778;28;20097;-84
2021/07/02 05:03:50;;;;;;;14.70;6.07;;;;;;;12.67;83.62;101046.94;4964845;28;20473;-84
2021/07/02 05:06:16;;;;;;;13.50;6.70;;;;;;;12.78;83.06;101048.38;4991221;28;20034;-84
2021/07/02 05:08:41;;;;;;;10.48;5.40;;;;;;;12.77;83.08;101050.22;5018833;28;20041;-83
2021/07/02 05:11:09;;;;;;;13.90;5.78;;;;;;;12.78;83.32;101051.09;4988207;28;20034;-85
2021/07/02 05:13:37;;;;;;;12.35;5.68;;;;;;;12.74;82.87;101039.81;4965327;28;20621;-84
2021/07/02 05:16:03;;;;;;;14.60;6.47;;;;;;;12.72;83.12;101043.72;4963104;28;20038;-83
2021/07/02 05:18:28;;;;;;;11.30;5.50;;;;;;;12.75;83.02;101057.69;4984078;28;20054;-83
2021/07/02 05:20:53;;;;;;;12.63;5.88;;;;;;;12.76;82.98;101051.25;4970746;28;20046;-84
2021/07/02 05:23:19;;;;;;;14.63;6.38;;;;;;;12.73;82.94;101032.75;4965972;28;20312;-83
2021/07/02 05:25:44;;;;;;;15.35;6.47;;;;;;;12.77;82.82;101034.03;4973890;28;20540;-83
2021/07/02 05:28:10;;;;;;;14.07;5.97;;;;;;;12.89;83.08;101039.00;4990993;28;20455;-83
2021/07/02 05:30:35;;;;;;;13.60;5.80;;;;;;;12.92;82.76;101044.03;4977071;28;20569;-85
2021/07/02 05:33:00;;;;;;;13.52;6.22;;;;;;;12.90;82.59;101035.28;4980119;28;20615;-84
2021/07/02 05:35:26;;;;;;;15.25;6.68;;;;;;;12.97;82.65;101044.31;4973767;28;20023;-83
2021/07/02 05:37:51;;;;;;;14.13;6.32;;;;;;;13.02;82.55;101059.94;4975283;28;20034;-84
2021/07/02 05:40:19;;;;;;;14.77;6.97;;;;;;;13.07;82.83;101061.09;4957956;28;20050;-84
2021/07/02 05:42:44;;;;;;;15.93;6.80;;;;;;;13.02;82.29;101046.44;4958468;28;20030;-84
2021/07/02 05:45:11;;;;;;;14.73;6.30;;;;;;;13.06;82.31;101054.00;4957789;28;20037;-84
2021/07/02 05:47:47;;;;;;;16.17;7.03;;;;;;;13.09;82.51;101048.22;4986394;28;20041;-84
2021/07/02 05:50:12;;;;;;;15.10;5.68;;;;;;;13.25;82.19;101058.00;4970041;28;20574;-84
2021/07/02 05:52:38;;;;;;;14.43;6.78;;;;;;;13.29;81.98;101059.34;4985246;28;20027;-84
2021/07/02 05:55:04;;;;;;;12.82;6.70;;;;;;;13.34;81.69;101058.81;4970374;28;20161;-84
2021/07/02 05:57:29;;;;;;;14.18;6.57;;;;;;;13.39;81.46;101059.09;4957323;28;20031;-84
2021/07/02 05:59:55;;;;;;;16.55;9.43;;;;;;;13.38;81.76;101057.38;4974144;28;20140;-84
2021/07/02 06:02:20;;;;;;;16.45;9.40;;;;;;;13.49;81.09;101053.38;4974448;28;20019;-84
2021/07/02 06:04:46;;;;;;;15.88;6.10;;;;;;;13.47;81.08;101042.78;4973901;28;20034;-84
2021/07/02 06:07:11;;;;;;;14.60;6.35;;;;;;;13.44;80.82;101036.88;4961157;28;20022;-84
2021/07/02 06:09:37;;;;;;;15.20;6.65;;;;;;;13.53;80.96;101044.72;4978896;28;20605;-83
2021/07/02 06:12:03;;;;;;;19.60;6.97;;;;;;;13.59;81.18;101043.94;4994136;28;20034;-84
2021/07/02 06:14:30;;;;;;;20.98;7.78;;;;;;;13.65;80.74;101050.47;4995972;28;20033;-85
2021/07/02 06:16:56;;;;;;;14.80;6.25;;;;;;;13.57;80.77;101024.38;4993666;28;20053;-82
2021/07/02 06:19:21;;;;;;;14.68;7.20;;;;;;;13.82;80.16;101048.41;4963136;28;20026;-84
2021/07/02 06:21:46;;;;;;;13.20;6.20;;;;;;;13.87;80.14;101045.97;4981328;28;20022;-83
2021/07/02 06:24:12;;;;;;;13.90;5.75;;;;;;;13.80;80.00;101028.81;4965013;28;20030;-81
2021/07/02 06:26:37;;;;;;;14.15;6.68;;;;;;;13.93;79.77;101045.19;4982575;28;20033;-85
2021/07/02 06:29:03;;;;;;;12.98;6.70;;;;;;;14.00;79.87;101045.28;4992609;28;20122;-83
2021/07/02 06:31:28;;;;;;;13.95;6.53;;;;;;;13.98;79.60;101041.91;4974993;28;20081;-84
2021/07/02 06:33:53;;;;;;;14.30;6.65;;;;;;;13.92;79.30;101021.03;4970288;28;20031;-84
2021/07/02 06:36:19;;;;;;;17.05;6.38;;;;;;;14.05;79.00;101035.56;4973491;28;20046;-84
2021/07/02 06:38:44;;;;;;;13.65;6.80;;;;;;;14.01;78.64;101019.91;4976458;28;20026;-84
2021/07/02 06:41:10;;;;;;;13.05;5.82;;;;;;;14.06;78.28;101009.34;4986135;28;20049;-84
2021/07/02 06:43:35;;;;;;;15.20;6.75;;;;;;;14.13;78.36;101022.91;4963006;28;20043;-84
2021/07/02 06:46:01;;;;;;;14.13;7.38;;;;;;;14.15;78.67;101023.56;4979956;28;20022;-84
2021/07/02 06:48:26;;;;;;;14.98;6.15;;;;;;;14.26;78.89;101028.47;4974910;28;20122;-84
2021/07/02 06:50:55;;;;;;;11.75;6.32;;;;;;;14.19;78.57;101014.06;4967786;28;20026;-84
2021/07/02 06:53:21;;;;;;;13.57;5.95;;;;;;;14.24;78.83;101034.09;4985620;28;20026;-84
2021/07/02 06:55:48;;;;;;;17.20;6.50;;;;;;;14.22;78.92;101021.78;4985076;28;20391;-85
2021/07/02 06:58:13;;;;;;;23.75;8.93;;;;;;;14.22;78.92;101011.78;4979490;28;20029;-85
2021/07/02 07:00:39;;;;;;;16.50;6.43;;;;;;;14.25;78.84;101007.88;4973749;28;20037;-86
2021/07/02 07:03:06;;;;;;;15.57;6.07;;;;;;;14.43;78.46;101023.66;5002556;28;20026;-85
2021/07/02 07:05:32;;;;;;;12.60;6.05;;;;;;;14.42;78.36;101020.09;4966713;28;20042;-85
2021/07/02 07:07:58;;;;;;;13.00;6.47;;;;;;;14.54;77.83;101027.72;4985149;28;20041;-85
2021/07/02 07:10:23;;;;;;;13.70;6.18;;;;;;;14.57;77.64;101027.31;4983276;28;20033;-85
2021/07/02 07:12:49;;;;;;;12.98;6.10;;;;;;;14.50;77.49;101014.56;4981469;28;20391;-85
2021/07/02 07:15:15;;;;;;;13.57;7.00;;;;;;;14.60;77.46;101029.63;4984131;28;20038;-85
2021/07/02 07:17:41;;;;;;;15.80;6.43;;;;;;;14.62;77.60;101033.00;4977234;28;20034;-85
2021/07/02 07:20:07;;;;;;;15.05;6.50;;;;;;;14.59;77.83;101019.84;4965209;28;20029;-86
2021/07/02 07:22:33;;;;;;;13.63;6.65;;;;;;;14.38;77.65;100997.16;4977165;28;20038;-86
2021/07/02 07:24:58;;;;;;;14.20;6.63;;;;;;;14.58;77.79;101019.03;4953444;28;20138;-85
2021/07/02 07:27:24;;;;;;;15.40;6.78;;;;;;;14.60;77.65;101007.97;4956260;28;20030;-85
2021/07/02 07:29:49;;;;;;;15.65;6.35;;;;;;;14.52;77.68;101006.22;4965469;28;20102;-85
2021/07/02 07:32:15;;;;;;;17.23;6.28;;;;;;;14.68;77.67;101005.97;4958081;28;20041;-85
2021/07/02 07:37:12;;;;;;;22.58;9.13;;;;;;;14.98;77.34;101010.31;4970689;28;20030;-85
2021/07/02 07:39:38;;;;;;;18.58;7.35;;;;;;;15.08;76.87;101002.69;4978424;28;20051;-85
2021/07/02 07:42:04;;;;;;;23.38;8.13;;;;;;;15.22;76.89;101012.56;4967329;28;20053;-85
2021/07/02 07:44:29;;;;;;;19.33;6.68;;;;;;;15.23;76.19;101008.00;4954015;28;20116;-86
2021/07/02 07:46:55;;;;;;;19.55;7.00;;;;;;;15.31;75.83;100995.09;4967635;28;20114;-86
2021/07/02 07:49:42;;;;;;;21.92;7.63;;;;;;;15.42;76.07;100992.84;4983148;28;20545;-86
2021/07/02 07:54:36;;;;;;;16.60;7.47;;;;;;;15.65;74.89;100990.66;4965493;28;20022;-84
2021/07/02 07:57:02;;;;;;;15.30;6.90;;;;;;;15.76;74.10;100991.97;4960401;28;20093;-83
2021/07/02 07:59:28;;;;;;;15.38;7.25;;;;;;;15.72;73.59;100980.72;4974982;28;20095;-83
2021/07/02 08:01:53;;;;;;;13.65;6.90;;;;;;;15.83;73.51;100996.38;4981945;28;20030;-83
2021/07/02 08:04:19;;;;;;;12.52;6.32;;;;;;;15.83;73.31;100999.09;4977370;28;20026;-83
2021/07/02 08:06:45;;;;;;;17.92;6.90;;;;;;;15.88;73.37;100995.78;4956674;28;20030;-84
2021/07/02 08:09:11;;;;;;;12.98;6.57;;;;;;;15.90;73.20;100992.84;4975608;28;20060;-83
2021/07/02 08:11:38;;;;;;;15.00;7.57;;;;;;;15.86;72.73;100987.00;4970714;28;20495;-83
2021/07/02 08:14:04;;;;;;;20.30;7.22;;;;;;;15.91;72.74;101008.09;4984645;28;20042;-84
2021/07/02 08:16:30;;;;;;;12.65;6.57;;;;;;;15.80;72.63;100985.94;4966445;28;20486;-83
2021/07/02 08:18:55;;;;;;;14.88;7.35;;;;;;;15.80;72.82;100996.78;4966318;28;20030;-83
2021/07/02 08:21:21;;;;;;;14.60;7.25;;;;;;;15.68;73.09;100973.97;4987162;28;20027;-84
2021/07/02 08:23:46;;;;;;;13.07;6.20;;;;;;;15.70;73.27;100995.50;5001481;28;20034;-84
2021/07/02 08:26:12;;;;;;;15.57;6.78;;;;;;;15.61;73.21;100992.94;4999381;28;20077;-83
2021/07/02 08:31:22;;;;;;;18.10;7.40;;;;;;;15.51;73.97;100988.94;4981995;28;20057;-83
2021/07/02 08:33:48;;;;;;;16.40;6.80;;;;;;;15.51;74.43;100997.91;4975875;28;20031;-85
2021/07/02 08:36:13;;;;;;;16.23;6.70;;;;;;;15.44;74.10;100998.91;4964761;28;20030;-84
2021/07/02 08:38:39;;;;;;;12.57;6.57;;;;;;;15.34;74.42;101002.00;4998034;28;20026;-84
2021/07/02 08:41:07;;;;;;;16.50;7.47;;;;;;;15.21;74.68;100991.91;4979925;28;20541;-84
2021/07/02 08:43:32;;;;;;;13.68;7.65;;;;;;;15.19;74.88;100999.44;4963457;28;20491;-83
2021/07/02 08:45:58;;;;;;;12.70;7.15;;;;;;;15.31;74.76;101015.94;4977483;28;20030;-84
2021/07/02 08:48:23;;;;;;;14.75;6.88;;;;;;;15.25;74.70;101001.34;4975610;28;20034;-83
2021/07/02 08:50:52;;;;;;;13.93;7.03;;;;;;;15.35;74.60;101009.09;4976929;28;20027;-83
2021/07/02 08:53:18;;;;;;;13.85;7.28;;;;;;;15.29;74.27;101008.00;4977691;28;20018;-83
2021/07/02 08:55:43;;;;;;;16.48;7.38;;;;;;;15.22;74.39;101006.31;4993123;28;20030;-83
2021/07/02 08:58:13;;;;;;;12.48;6.90;;;;;;;15.13;74.56;100998.34;4962167;28;20030;-83
2021/07/02 09:00:43;;;;;;;14.27;7.53;;;;;;;15.13;74.67;101005.63;4969967;28;20022;-83
2021/07/02 09:03:29;;;;;;;12.05;5.97;;;;;;;15.16;75.01;101011.50;4967059;28;20026;-83
2021/07/02 09:05:58;;;;;;;13.40;6.53;;;;;;;15.11;74.93;101013.97;5001217;28;20050;-84
2021/07/02 09:08:24;;;;;;;17.10;7.15;;;;;;;15.09;74.81;101016.03;4985146;28;20053;-83
2021/07/02 09:10:49;;;;;;;14.70;6.57;;;;;;;15.00;74.85;101009.09;4983815;28;20049;-83
2021/07/02 09:13:15;;;;;;;15.30;6.55;;;;;;;14.97;74.81;101011.38;4968954;28;20103;-83
2021/07/02 09:15:49;;;;;;;13.90;6.85;;;;;;;14.97;74.74;101012.19;4983994;28;20117;-83
2021/07/02 09:18:16;;;;;;;14.07;6.15;;;;;;;14.94;74.76;101015.31;4963520;28;20078;-83
2021/07/02 09:20:45;;;;;;;16.48;6.38;;;;;;;14.99;74.70;101014.72;4978895;28;20034;-83
2021/07/02 09:23:13;;;;;;;14.00;6.82;;;;;;;14.97;74.84;101019.50;4989455;28;20038;-77
2021/07/02 09:25:49;;;;;;;15.23;7.63;;;;;;;14.98;75.19;101011.19;4972402;28;20026;-83
2021/07/02 09:28:17;;;;;;;14.77;7.70;;;;;;;14.98;75.39;101015.75;4997245;28;20546;-83
2021/07/02 09:30:47;;;;;;;14.40;6.80;;;;;;;14.91;75.73;101005.72;4979279;28;20027;-84
2021/07/02 09:33:18;;;;;;;19.05;6.97;;;;;;;14.94;75.83;101015.31;4971743;28;20076;-83
2021/07/02 09:35:47;;;;;;;17.55;7.35;;;;;;;14.99;75.74;101012.00;4978897;28;20022;-83
2021/07/02 09:38:18;;;;;;;18.67;7.65;;;;;;;14.97;75.70;100981.59;4995103;28;20039;-83
2021/07/02 09:40:45;;;;;;;19.23;7.97;;;;;;;15.23;75.52;100995.28;4986949;28;20057;-84
2021/07/02 09:43:18;;;;;;;25.45;7.88;;;;;;;15.41;75.02;100996.63;4971826;28;20038;-83
2021/07/02 09:45:56;;;;;;;17.40;7.32;;;;;;;15.57;74.53;100988.13;4999223;28;20054;-83
2021/07/02 09:48:23;;;;;;;21.48;7.45;;;;;;;15.64;74.38;100980.88;4994663;28;20027;-83
2021/07/02 09:50:56;;;;;;;20.58;7.50;;;;;;;15.78;74.28;100984.47;4965858;28;20032;-83
2021/07/02 09:53:24;;;;;;;20.23;7.83;;;;;;;15.93;73.06;100987.84;4962855;28;20770;-83
2021/07/02 09:55:52;;;;;;;20.52;7.38;;;;;;;16.10;72.94;100980.16;4981683;28;20084;-83
2021/07/02 09:58:21;;;;;;;20.08;7.85;;;;;;;16.21;72.86;100974.09;4985329;28;20026;-83
2021/07/02 10:00:47;;;;;;;20.55;8.70;;;;;;;16.37;72.91;100972.03;4976996;28;20060;-84
2021/07/02 10:03:16;;;;;;;16.42;7.88;;;;;;;16.45;73.01;100959.06;4978075;28;20590;-83
2021/07/02 10:05:49;;;;;;;14.07;7.35;;;;;;;16.78;72.05;100968.28;4981784;28;20038;-83
2021/07/02 10:08:15;;;;;;;15.63;8.02;;;;;;;16.86;70.85;100976.19;4976295;28;20597;-83
2021/07/02 10:10:41;;;;;;;18.63;7.85;;;;;;;16.89;70.49;100965.75;4977681;28;20038;-83
2021/07/02 10:13:06;;;;;;;17.02;9.13;;;;;;;16.90;69.96;100953.81;4966366;28;20529;-84
2021/07/02 10:15:32;;;;;;;25.38;9.10;;;;;;;17.08;69.57;100965.91;4994053;28;20620;-84
2021/07/02 10:17:59;;;;;;;16.90;7.85;;;;;;;17.11;69.93;100969.00;4976520;28;20125;-83
2021/07/02 10:20:30;;;;;;;18.35;8.20;;;;;;;17.11;69.56;100969.00;4961379;28;20030;-83
2021/07/02 10:22:58;;;;;;;15.77;7.50;;;;;;;17.03;69.43;100952.13;4973877;28;20316;-83
2021/07/02 10:25:28;;;;;;;18.40;7.55;;;;;;;17.26;69.51;100962.50;4975316;28;20106;-84
2021/07/02 10:27:54;;;;;;;19.60;8.50;;;;;;;17.55;68.88;100951.06;4974946;28;20033;-83
2021/07/02 10:30:20;;;;;;;18.35;9.20;;;;;;;17.99;67.31;100957.53;4979835;28;20022;-83
2021/07/02 10:32:47;;;;;;;20.00;8.27;;;;;;;18.44;65.57;100951.94;4975189;28;20030;-83
2021/07/02 10:35:15;;;;;;;20.85;10.40;;;;;;;18.63;64.36;100952.00;4986830;28;20090;-84
2021/07/02 10:37:42;;;;;;;25.90;10.98;;;;;;;18.84;64.02;100943.41;4977244;28;20022;-84
2021/07/02 10:40:30;;;;;;;36.80;17.40;;;;;;;19.06;62.81;100953.88;4978250;28;20022;-83
2021/07/02 10:43:13;;;;;;;23.63;11.45;;;;;;;19.17;61.85;100950.38;4991702;28;20081;-83
2021/07/02 10:46:07;;;;;;;18.35;7.68;;;;;;;19.44;62.27;100939.94;4988528;28;20034;-84
2021/07/02 10:48:49;;;;;;;18.38;8.23;;;;;;;19.63;61.27;100938.00;4974356;28;20041;-83
2021/07/02 10:51:29;;;;;;;21.02;8.77;;;;;;;19.73;60.53;100934.78;4978692;28;20030;-82
2021/07/02 10:53:57;;;;;;;19.15;9.32;;;;;;;19.43;61.30;100935.56;4994181;28;20061;-84
2021/07/02 10:56:27;;;;;;;18.35;9.45;;;;;;;19.36;61.92;100940.28;4972824;28;20550;-83
2021/07/02 10:58:53;;;;;;;20.83;10.05;;;;;;;19.35;61.14;100927.72;4978488;28;20040;-84
2021/07/02 11:01:19;;;;;;;16.05;8.05;;;;;;;19.25;60.91;100924.69;4993032;28;20027;-84
2021/07/02 11:03:44;;;;;;;15.13;7.93;;;;;;;19.13;61.21;100921.88;4977632;28;20499;-82
2021/07/02 11:06:37;;;;;;;15.38;8.35;;;;;;;19.07;61.03;100934.53;4975877;28;20046;-81
2021/07/02 11:09:02;;;;;;;12.75;6.88;;;;;;;18.78;59.74;100917.06;4971300;28;20507;-81
2021/07/02 11:12:07;;;;;;;16.23;8.13;;;;;;;18.60;59.62;100922.44;4960814;28;20042;-82
2021/07/02 11:14:33;;;;;;;15.23;9.18;;;;;;;18.31;60.34;100913.09;4960198;28;20030;-81
2021/07/02 11:17:35;;;;;;;15.43;8.20;;;;;;;18.23;60.80;100916.94;4956948;28;20041;-82
2021/07/02 11:22:44;;;;;;;17.92;7.30;;;;;;;18.14;61.15;100919.09;4964764;28;20042;-81
2021/07/02 11:25:43;;;;;;;15.95;8.27;;;;;;;18.14;61.81;100918.28;4959009;28;20364;-81
2021/07/02 11:28:12;;;;;;;13.45;6.43;;;;;;;18.13;61.84;100916.63;4993892;28;20053;-82